sensor_id;sensor_type;location;lat;lon;timestamp;P1;durP1;ratioP1;P2;durP2;ratioP2
52686;SDS011;38584;49.426;8.396;2022-08-11T00:01:04;6.70;;;2.45;;
52686;SDS011;38584;49.426;8.396;2022-08-11T00:03:29;7.05;;;2.60;;
52686;SDS011;38584;49.426;8.396;2022-08-11T00:05:55;5.63;;;2.17;;
52686;SDS011;38584;49.426;8.396;2022-08-11T00:08:39;6.15;;;2.33;;
52686;SDS011;38584;49.426;8.396;2022-08-11T00:11:07;4.95;;;2.20;;
52686;SDS011;38584;49.426;8.396;2022-08-11T00:13:34;7.57;;;2.28;;
52686;SDS011;38584;49.426;8.396;2022-08-11T00:16:00;5.68;;;2.25;;
52686;SDS011;38584;49.426;8.396;2022-08-11T00:18:26;6.72;;;2.30;;
52686;SDS011;38584;49.426;8.396;2022-08-11T00:20:51;6.23;;;2.17;;
52686;SDS011;38584;49.426;8.396;2022-08-11T00:23:21;8.55;;;2.42;;
52686;SDS011;38584;49.426;8.396;2022-08-11T00:25:48;6.72;;;2.50;;
52686;SDS011;38584;49.426;8.396;2022-08-11T00:28:30;6.63;;;2.28;;
52686;SDS011;38584;49.426;8.396;2022-08-11T00:30:58;7.80;;;2.60;;
52686;SDS011;38584;49.426;8.396;2022-08-11T00:33:25;12.23;;;2.40;;
52686;SDS011;38584;49.426;8.396;2022-08-11T00:35:56;6.95;;;2.22;;
52686;SDS011;38584;49.426;8.396;2022-08-11T00:38:24;6.10;;;2.13;;
52686;SDS011;38584;49.426;8.396;2022-08-11T00:40:52;10.02;;;2.53;;
52686;SDS011;38584;49.426;8.396;2022-08-11T00:43:21;7.00;;;2.50;;
52686;SDS011;38584;49.426;8.396;2022-08-11T00:48:46;8.68;;;2.60;;
52686;SDS011;38584;49.426;8.396;2022-08-11T01:09:20;14.77;;;2.92;;
52686;SDS011;38584;49.426;8.396;2022-08-11T01:24:55;11.10;;;3.13;;
52686;SDS011;38584;49.426;8.396;2022-08-11T01:30:16;16.38;;;3.38;;
52686;SDS011;38584;49.426;8.396;2022-08-11T01:45:41;12.85;;;2.90;;
52686;SDS011;38584;49.426;8.396;2022-08-11T01:48:16;13.07;;;2.97;;
52686;SDS011;38584;49.426;8.396;2022-08-11T01:50:49;9.75;;;2.85;;
52686;SDS011;38584;49.426;8.396;2022-08-11T01:53:27;10.57;;;3.37;;
52686;SDS011;38584;49.426;8.396;2022-08-11T01:58:37;11.10;;;3.58;;
52686;SDS011;38584;49.426;8.396;2022-08-11T02:03:42;9.82;;;3.47;;
52686;SDS011;38584;49.426;8.396;2022-08-11T02:06:18;13.98;;;4.05;;
52686;SDS011;38584;49.426;8.396;2022-08-11T02:11:48;12.20;;;3.15;;
52686;SDS011;38584;49.426;8.396;2022-08-11T02:14:25;10.65;;;3.55;;
52686;SDS011;38584;49.426;8.396;2022-08-11T02:16:55;10.25;;;3.30;;
52686;SDS011;38584;49.426;8.396;2022-08-11T02:19:25;12.25;;;3.97;;
52686;SDS011;38584;49.426;8.396;2022-08-11T02:22:17;12.52;;;3.50;;
52686;SDS011;38584;49.426;8.396;2022-08-11T02:25:09;10.10;;;3.22;;
52686;SDS011;38584;49.426;8.396;2022-08-11T02:27:38;18.73;;;3.83;;
52686;SDS011;38584;49.426;8.396;2022-08-11T02:30:09;14.48;;;3.78;;
52686;SDS011;38584;49.426;8.396;2022-08-11T02:32:46;13.68;;;3.80;;
52686;SDS011;38584;49.426;8.396;2022-08-11T02:35:34;10.57;;;3.47;;
52686;SDS011;38584;49.426;8.396;2022-08-11T02:40:48;9.32;;;3.55;;
52686;SDS011;38584;49.426;8.396;2022-08-11T02:43:23;9.50;;;3.75;;
52686;SDS011;38584;49.426;8.396;2022-08-11T02:45:53;10.80;;;3.67;;
52686;SDS011;38584;49.426;8.396;2022-08-11T02:48:30;15.43;;;3.83;;
52686;SDS011;38584;49.426;8.396;2022-08-11T02:51:25;11.32;;;3.72;;
52686;SDS011;38584;49.426;8.396;2022-08-11T02:58:54;20.48;;;4.22;;
52686;SDS011;38584;49.426;8.396;2022-08-11T03:01:45;13.82;;;4.43;;
52686;SDS011;38584;49.426;8.396;2022-08-11T03:04:16;12.85;;;3.58;;
52686;SDS011;38584;49.426;8.396;2022-08-11T03:06:48;18.70;;;3.92;;
52686;SDS011;38584;49.426;8.396;2022-08-11T03:09:21;14.20;;;3.80;;
52686;SDS011;38584;49.426;8.396;2022-08-11T03:18:22;9.00;;;3.45;;
52686;SDS011;38584;49.426;8.396;2022-08-11T03:20:35;14.02;;;3.97;;
52686;SDS011;38584;49.426;8.396;2022-08-11T03:23:05;15.90;;;3.80;;
52686;SDS011;38584;49.426;8.396;2022-08-11T03:25:44;11.85;;;3.95;;
52686;SDS011;38584;49.426;8.396;2022-08-11T03:38:55;15.85;;;4.00;;
52686;SDS011;38584;49.426;8.396;2022-08-11T04:05:45;13.90;;;3.73;;
52686;SDS011;38584;49.426;8.396;2022-08-11T04:13:55;9.60;;;3.92;;
52686;SDS011;38584;49.426;8.396;2022-08-11T04:16:53;14.57;;;3.72;;
52686;SDS011;38584;49.426;8.396;2022-08-11T04:27:26;10.90;;;3.53;;
52686;SDS011;38584;49.426;8.396;2022-08-11T04:32:30;14.43;;;3.78;;
52686;SDS011;38584;49.426;8.396;2022-08-11T04:35:07;14.85;;;3.55;;
52686;SDS011;38584;49.426;8.396;2022-08-11T04:37:36;14.15;;;3.80;;
52686;SDS011;38584;49.426;8.396;2022-08-11T04:45:44;13.43;;;4.30;;
52686;SDS011;38584;49.426;8.396;2022-08-11T04:57:19;9.82;;;3.45;;
52686;SDS011;38584;49.426;8.396;2022-08-11T05:00:11;12.30;;;3.53;;
52686;SDS011;38584;49.426;8.396;2022-08-11T05:13:34;15.55;;;3.97;;
52686;SDS011;38584;49.426;8.396;2022-08-11T05:16:21;15.60;;;3.85;;
52686;SDS011;38584;49.426;8.396;2022-08-11T05:19:06;14.48;;;3.47;;
52686;SDS011;38584;49.426;8.396;2022-08-11T05:21:54;9.43;;;3.55;;
52686;SDS011;38584;49.426;8.396;2022-08-11T05:24:41;11.93;;;3.47;;
52686;SDS011;38584;49.426;8.396;2022-08-11T05:27:29;12.13;;;3.35;;
52686;SDS011;38584;49.426;8.396;2022-08-11T05:30:15;14.73;;;3.42;;
52686;SDS011;38584;49.426;8.396;2022-08-11T05:33:01;12.35;;;3.38;;
52686;SDS011;38584;49.426;8.396;2022-08-11T05:35:46;14.80;;;3.47;;
52686;SDS011;38584;49.426;8.396;2022-08-11T05:38:20;11.95;;;3.58;;
52686;SDS011;38584;49.426;8.396;2022-08-11T05:41:05;13.45;;;3.35;;
52686;SDS011;38584;49.426;8.396;2022-08-11T05:43:49;10.00;;;3.50;;
52686;SDS011;38584;49.426;8.396;2022-08-11T05:46:40;12.73;;;3.75;;
52686;SDS011;38584;49.426;8.396;2022-08-11T05:49:24;13.27;;;3.75;;
52686;SDS011;38584;49.426;8.396;2022-08-11T05:52:29;13.65;;;3.85;;
52686;SDS011;38584;49.426;8.396;2022-08-11T05:55:14;13.15;;;3.70;;
52686;SDS011;38584;49.426;8.396;2022-08-11T05:57:59;18.15;;;3.67;;
52686;SDS011;38584;49.426;8.396;2022-08-11T06:00:25;13.20;;;3.55;;
52686;SDS011;38584;49.426;8.396;2022-08-11T06:03:00;21.73;;;4.05;;
52686;SDS011;38584;49.426;8.396;2022-08-11T06:05:34;15.15;;;3.90;;
52686;SDS011;38584;49.426;8.396;2022-08-11T06:07:59;9.65;;;3.35;;
52686;SDS011;38584;49.426;8.396;2022-08-11T06:10:27;12.65;;;3.80;;
52686;SDS011;38584;49.426;8.396;2022-08-11T06:12:53;16.45;;;4.07;;
52686;SDS011;38584;49.426;8.396;2022-08-11T06:15:20;16.83;;;3.95;;
52686;SDS011;38584;49.426;8.396;2022-08-11T06:17:45;18.23;;;4.15;;
52686;SDS011;38584;49.426;8.396;2022-08-11T06:20:13;14.00;;;3.70;;
52686;SDS011;38584;49.426;8.396;2022-08-11T06:22:41;17.92;;;4.10;;
52686;SDS011;38584;49.426;8.396;2022-08-11T06:25:07;18.48;;;4.30;;
52686;SDS011;38584;49.426;8.396;2022-08-11T06:27:33;12.40;;;3.70;;
52686;SDS011;38584;49.426;8.396;2022-08-11T06:29:59;15.70;;;4.20;;
52686;SDS011;38584;49.426;8.396;2022-08-11T06:32:26;15.93;;;4.00;;
52686;SDS011;38584;49.426;8.396;2022-08-11T06:35:06;15.45;;;4.18;;
52686;SDS011;38584;49.426;8.396;2022-08-11T06:40:09;15.55;;;3.78;;
52686;SDS011;38584;49.426;8.396;2022-08-11T06:42:38;18.75;;;4.18;;
52686;SDS011;38584;49.426;8.396;2022-08-11T06:45:08;13.82;;;3.90;;
52686;SDS011;38584;49.426;8.396;2022-08-11T06:47:40;15.35;;;3.60;;
52686;SDS011;38584;49.426;8.396;2022-08-11T06:50:06;14.88;;;3.90;;
52686;SDS011;38584;49.426;8.396;2022-08-11T06:52:51;17.77;;;4.38;;
52686;SDS011;38584;49.426;8.396;2022-08-11T06:55:24;11.57;;;3.63;;
52686;SDS011;38584;49.426;8.396;2022-08-11T06:58:12;13.63;;;4.13;;
52686;SDS011;38584;49.426;8.396;2022-08-11T07:00:57;15.45;;;4.10;;
52686;SDS011;38584;49.426;8.396;2022-08-11T07:03:24;21.58;;;4.10;;
52686;SDS011;38584;49.426;8.396;2022-08-11T07:05:51;12.02;;;4.05;;
52686;SDS011;38584;49.426;8.396;2022-08-11T07:14:01;13.27;;;4.03;;
52686;SDS011;38584;49.426;8.396;2022-08-11T07:16:46;21.42;;;4.38;;
52686;SDS011;38584;49.426;8.396;2022-08-11T07:19:12;16.50;;;3.97;;
52686;SDS011;38584;49.426;8.396;2022-08-11T07:21:57;11.35;;;3.75;;
52686;SDS011;38584;49.426;8.396;2022-08-11T07:24:45;12.10;;;3.72;;
52686;SDS011;38584;49.426;8.396;2022-08-11T07:27:35;9.68;;;3.60;;
52686;SDS011;38584;49.426;8.396;2022-08-11T07:30:19;13.85;;;3.97;;
52686;SDS011;38584;49.426;8.396;2022-08-11T07:32:51;18.52;;;3.90;;
52686;SDS011;38584;49.426;8.396;2022-08-11T07:35:27;17.73;;;3.95;;
52686;SDS011;38584;49.426;8.396;2022-08-11T07:37:58;13.02;;;4.00;;
52686;SDS011;38584;49.426;8.396;2022-08-11T07:40:24;14.05;;;3.60;;
52686;SDS011;38584;49.426;8.396;2022-08-11T07:42:50;16.85;;;3.88;;
52686;SDS011;38584;49.426;8.396;2022-08-11T07:45:16;19.63;;;3.97;;
52686;SDS011;38584;49.426;8.396;2022-08-11T07:50:45;14.60;;;3.78;;
52686;SDS011;38584;49.426;8.396;2022-08-11T07:53:29;11.00;;;3.28;;
52686;SDS011;38584;49.426;8.396;2022-08-11T07:55:55;12.52;;;3.50;;
52686;SDS011;38584;49.426;8.396;2022-08-11T07:58:22;16.00;;;3.17;;
52686;SDS011;38584;49.426;8.396;2022-08-11T08:01:06;11.93;;;3.30;;
52686;SDS011;38584;49.426;8.396;2022-08-11T08:03:50;18.95;;;3.50;;
52686;SDS011;38584;49.426;8.396;2022-08-11T08:06:34;10.10;;;3.00;;
52686;SDS011;38584;49.426;8.396;2022-08-11T08:09:19;10.75;;;2.90;;
52686;SDS011;38584;49.426;8.396;2022-08-11T08:12:04;13.73;;;2.92;;
52686;SDS011;38584;49.426;8.396;2022-08-11T08:14:49;8.63;;;3.17;;
52686;SDS011;38584;49.426;8.396;2022-08-11T08:17:33;10.23;;;3.10;;
52686;SDS011;38584;49.426;8.396;2022-08-11T08:20:22;10.68;;;2.88;;
52686;SDS011;38584;49.426;8.396;2022-08-11T08:22:52;13.75;;;3.55;;
52686;SDS011;38584;49.426;8.396;2022-08-11T08:25:32;10.15;;;3.03;;
52686;SDS011;38584;49.426;8.396;2022-08-11T08:27:58;12.30;;;2.83;;
52686;SDS011;38584;49.426;8.396;2022-08-11T08:30:24;11.80;;;2.75;;
52686;SDS011;38584;49.426;8.396;2022-08-11T08:33:10;6.95;;;2.42;;
52686;SDS011;38584;49.426;8.396;2022-08-11T08:35:36;14.43;;;2.90;;
52686;SDS011;38584;49.426;8.396;2022-08-11T08:38:01;11.05;;;2.92;;
52686;SDS011;38584;49.426;8.396;2022-08-11T08:40:27;7.93;;;2.72;;
52686;SDS011;38584;49.426;8.396;2022-08-11T08:42:54;12.20;;;2.92;;
52686;SDS011;38584;49.426;8.396;2022-08-11T08:45:20;9.77;;;2.75;;
52686;SDS011;38584;49.426;8.396;2022-08-11T08:47:47;6.18;;;2.53;;
52686;SDS011;38584;49.426;8.396;2022-08-11T08:50:19;6.97;;;2.42;;
52686;SDS011;38584;49.426;8.396;2022-08-11T08:52:49;8.68;;;2.67;;
52686;SDS011;38584;49.426;8.396;2022-08-11T08:55:18;6.65;;;2.50;;
52686;SDS011;38584;49.426;8.396;2022-08-11T08:57:44;8.15;;;3.00;;
52686;SDS011;38584;49.426;8.396;2022-08-11T09:00:10;11.93;;;2.72;;
52686;SDS011;38584;49.426;8.396;2022-08-11T09:02:38;11.68;;;3.03;;
52686;SDS011;38584;49.426;8.396;2022-08-11T09:05:03;11.45;;;2.60;;
52686;SDS011;38584;49.426;8.396;2022-08-11T09:07:29;12.18;;;3.00;;
52686;SDS011;38584;49.426;8.396;2022-08-11T09:09:56;8.77;;;2.53;;
52686;SDS011;38584;49.426;8.396;2022-08-11T09:12:24;7.00;;;2.42;;
52686;SDS011;38584;49.426;8.396;2022-08-11T09:14:50;6.70;;;2.60;;
52686;SDS011;38584;49.426;8.396;2022-08-11T09:17:28;6.18;;;2.47;;
52686;SDS011;38584;49.426;8.396;2022-08-11T09:19:54;6.00;;;2.30;;
52686;SDS011;38584;49.426;8.396;2022-08-11T09:22:23;7.10;;;2.47;;
52686;SDS011;38584;49.426;8.396;2022-08-11T09:25:08;7.43;;;2.53;;
52686;SDS011;38584;49.426;8.396;2022-08-11T09:27:52;10.93;;;2.53;;
52686;SDS011;38584;49.426;8.396;2022-08-11T09:30:18;8.20;;;2.67;;
52686;SDS011;38584;49.426;8.396;2022-08-11T09:32:44;7.30;;;2.13;;
52686;SDS011;38584;49.426;8.396;2022-08-11T09:35:09;9.80;;;2.70;;
52686;SDS011;38584;49.426;8.396;2022-08-11T09:37:35;6.97;;;2.83;;
52686;SDS011;38584;49.426;8.396;2022-08-11T09:40:19;9.68;;;2.60;;
52686;SDS011;38584;49.426;8.396;2022-08-11T09:42:54;8.93;;;2.42;;
52686;SDS011;38584;49.426;8.396;2022-08-11T09:45:38;11.60;;;2.63;;
52686;SDS011;38584;49.426;8.396;2022-08-11T09:48:03;9.88;;;2.45;;
52686;SDS011;38584;49.426;8.396;2022-08-11T09:50:30;6.50;;;2.50;;
52686;SDS011;38584;49.426;8.396;2022-08-11T09:52:56;10.60;;;2.50;;
52686;SDS011;38584;49.426;8.396;2022-08-11T09:55:22;7.68;;;2.40;;
52686;SDS011;38584;49.426;8.396;2022-08-11T09:57:48;11.02;;;3.17;;
52686;SDS011;38584;49.426;8.396;2022-08-11T10:00:33;13.18;;;3.42;;
52686;SDS011;38584;49.426;8.396;2022-08-11T10:03:02;11.43;;;2.80;;
52686;SDS011;38584;49.426;8.396;2022-08-11T10:05:31;8.68;;;2.70;;
52686;SDS011;38584;49.426;8.396;2022-08-11T10:08:16;6.32;;;2.50;;
52686;SDS011;38584;49.426;8.396;2022-08-11T10:10:42;6.15;;;2.15;;
52686;SDS011;38584;49.426;8.396;2022-08-11T10:13:10;4.47;;;2.28;;
52686;SDS011;38584;49.426;8.396;2022-08-11T10:15:38;6.50;;;2.53;;
52686;SDS011;38584;49.426;8.396;2022-08-11T10:18:08;9.23;;;2.47;;
52686;SDS011;38584;49.426;8.396;2022-08-11T10:21:00;5.43;;;2.08;;
52686;SDS011;38584;49.426;8.396;2022-08-11T10:23:31;7.50;;;2.40;;
52686;SDS011;38584;49.426;8.396;2022-08-11T10:26:13;7.63;;;2.30;;
52686;SDS011;38584;49.426;8.396;2022-08-11T10:28:58;5.97;;;2.35;;
52686;SDS011;38584;49.426;8.396;2022-08-11T10:31:24;6.15;;;2.05;;
52686;SDS011;38584;49.426;8.396;2022-08-11T10:34:09;6.53;;;2.28;;
52686;SDS011;38584;49.426;8.396;2022-08-11T10:36:39;7.25;;;2.28;;
52686;SDS011;38584;49.426;8.396;2022-08-11T10:39:26;10.02;;;2.65;;
52686;SDS011;38584;49.426;8.396;2022-08-11T10:41:52;6.15;;;2.28;;
52686;SDS011;38584;49.426;8.396;2022-08-11T10:44:40;7.80;;;2.20;;
52686;SDS011;38584;49.426;8.396;2022-08-11T10:47:06;7.68;;;2.38;;
52686;SDS011;38584;49.426;8.396;2022-08-11T10:49:51;7.10;;;2.20;;
52686;SDS011;38584;49.426;8.396;2022-08-11T10:52:36;6.03;;;2.10;;
52686;SDS011;38584;49.426;8.396;2022-08-11T10:55:20;7.60;;;2.30;;
52686;SDS011;38584;49.426;8.396;2022-08-11T11:00:48;10.37;;;2.37;;
52686;SDS011;38584;49.426;8.396;2022-08-11T11:03:15;6.60;;;2.13;;
52686;SDS011;38584;49.426;8.396;2022-08-11T11:05:40;8.10;;;2.40;;
52686;SDS011;38584;49.426;8.396;2022-08-11T11:08:11;6.18;;;2.35;;
52686;SDS011;38584;49.426;8.396;2022-08-11T11:10:56;7.90;;;2.15;;
52686;SDS011;38584;49.426;8.396;2022-08-11T11:13:21;7.05;;;2.15;;
52686;SDS011;38584;49.426;8.396;2022-08-11T11:16:06;3.38;;;1.70;;
52686;SDS011;38584;49.426;8.396;2022-08-11T11:19:07;6.43;;;2.20;;
52686;SDS011;38584;49.426;8.396;2022-08-11T11:21:33;10.73;;;2.20;;
52686;SDS011;38584;49.426;8.396;2022-08-11T11:29:36;5.18;;;2.00;;
52686;SDS011;38584;49.426;8.396;2022-08-11T11:32:19;6.45;;;2.03;;
52686;SDS011;38584;49.426;8.396;2022-08-11T11:37:32;8.18;;;2.20;;
52686;SDS011;38584;49.426;8.396;2022-08-11T11:39:59;5.53;;;2.20;;
52686;SDS011;38584;49.426;8.396;2022-08-11T11:42:25;7.88;;;2.10;;
52686;SDS011;38584;49.426;8.396;2022-08-11T11:44:51;6.32;;;2.15;;
52686;SDS011;38584;49.426;8.396;2022-08-11T11:47:16;5.88;;;2.00;;
52686;SDS011;38584;49.426;8.396;2022-08-11T11:49:47;6.95;;;2.50;;
52686;SDS011;38584;49.426;8.396;2022-08-11T11:52:14;7.90;;;1.88;;
52686;SDS011;38584;49.426;8.396;2022-08-11T11:54:42;6.55;;;2.20;;
52686;SDS011;38584;49.426;8.396;2022-08-11T11:57:07;9.23;;;2.30;;
52686;SDS011;38584;49.426;8.396;2022-08-11T11:59:51;5.10;;;2.13;;
52686;SDS011;38584;49.426;8.396;2022-08-11T12:02:35;6.25;;;2.00;;
52686;SDS011;38584;49.426;8.396;2022-08-11T12:05:01;8.55;;;2.13;;
52686;SDS011;38584;49.426;8.396;2022-08-11T12:07:27;3.85;;;2.00;;
52686;SDS011;38584;49.426;8.396;2022-08-11T12:10:11;4.65;;;2.22;;
52686;SDS011;38584;49.426;8.396;2022-08-11T12:12:36;7.80;;;2.10;;
52686;SDS011;38584;49.426;8.396;2022-08-11T12:15:20;6.10;;;2.10;;
52686;SDS011;38584;49.426;8.396;2022-08-11T12:17:46;5.70;;;2.00;;
52686;SDS011;38584;49.426;8.396;2022-08-11T12:20:11;6.57;;;2.10;;
52686;SDS011;38584;49.426;8.396;2022-08-11T12:22:39;5.38;;;2.22;;
52686;SDS011;38584;49.426;8.396;2022-08-11T12:25:23;6.45;;;2.10;;
52686;SDS011;38584;49.426;8.396;2022-08-11T12:28:06;4.95;;;2.00;;
52686;SDS011;38584;49.426;8.396;2022-08-11T12:30:32;5.10;;;2.00;;
52686;SDS011;38584;49.426;8.396;2022-08-11T12:32:57;3.83;;;1.90;;
52686;SDS011;38584;49.426;8.396;2022-08-11T12:35:22;5.00;;;1.90;;
52686;SDS011;38584;49.426;8.396;2022-08-11T12:37:48;6.38;;;2.25;;
52686;SDS011;38584;49.426;8.396;2022-08-11T12:40:17;11.50;;;2.20;;
52686;SDS011;38584;49.426;8.396;2022-08-11T12:43:02;10.43;;;2.45;;
52686;SDS011;38584;49.426;8.396;2022-08-11T12:45:46;4.20;;;2.08;;
52686;SDS011;38584;49.426;8.396;2022-08-11T12:48:15;5.03;;;2.00;;
52686;SDS011;38584;49.426;8.396;2022-08-11T12:51:01;9.98;;;2.30;;
52686;SDS011;38584;49.426;8.396;2022-08-11T12:54:20;4.68;;;2.20;;
52686;SDS011;38584;49.426;8.396;2022-08-11T12:56:48;7.05;;;2.17;;
52686;SDS011;38584;49.426;8.396;2022-08-11T12:59:33;5.75;;;2.03;;
52686;SDS011;38584;49.426;8.396;2022-08-11T13:02:18;8.48;;;2.33;;
52686;SDS011;38584;49.426;8.396;2022-08-11T13:05:03;4.38;;;1.90;;
52686;SDS011;38584;49.426;8.396;2022-08-11T13:07:29;9.10;;;2.28;;
52686;SDS011;38584;49.426;8.396;2022-08-11T13:09:56;7.88;;;2.35;;
52686;SDS011;38584;49.426;8.396;2022-08-11T13:12:22;5.07;;;2.15;;
52686;SDS011;38584;49.426;8.396;2022-08-11T13:15:06;5.25;;;2.10;;
52686;SDS011;38584;49.426;8.396;2022-08-11T13:17:32;5.80;;;2.20;;
52686;SDS011;38584;49.426;8.396;2022-08-11T13:19:58;4.15;;;2.10;;
52686;SDS011;38584;49.426;8.396;2022-08-11T13:22:24;8.68;;;2.40;;
52686;SDS011;38584;49.426;8.396;2022-08-11T13:24:50;5.20;;;2.13;;
52686;SDS011;38584;49.426;8.396;2022-08-11T13:27:16;8.35;;;2.30;;
52686;SDS011;38584;49.426;8.396;2022-08-11T13:29:43;5.22;;;2.03;;
52686;SDS011;38584;49.426;8.396;2022-08-11T13:32:10;5.18;;;2.05;;
52686;SDS011;38584;49.426;8.396;2022-08-11T13:34:36;10.82;;;2.20;;
52686;SDS011;38584;49.426;8.396;2022-08-11T13:37:05;5.85;;;2.22;;
52686;SDS011;38584;49.426;8.396;2022-08-11T13:39:31;5.15;;;2.15;;
52686;SDS011;38584;49.426;8.396;2022-08-11T13:41:58;10.13;;;2.40;;
52686;SDS011;38584;49.426;8.396;2022-08-11T13:44:27;5.10;;;1.92;;
52686;SDS011;38584;49.426;8.396;2022-08-11T13:46:57;4.43;;;2.20;;
52686;SDS011;38584;49.426;8.396;2022-08-11T13:49:23;9.02;;;2.00;;
52686;SDS011;38584;49.426;8.396;2022-08-11T13:51:48;7.63;;;2.03;;
52686;SDS011;38584;49.426;8.396;2022-08-11T13:54:15;7.65;;;2.30;;
52686;SDS011;38584;49.426;8.396;2022-08-11T13:56:44;7.72;;;2.38;;
52686;SDS011;38584;49.426;8.396;2022-08-11T13:59:10;3.95;;;1.90;;
52686;SDS011;38584;49.426;8.396;2022-08-11T14:01:37;9.75;;;2.25;;
52686;SDS011;38584;49.426;8.396;2022-08-11T14:04:10;5.03;;;2.10;;
52686;SDS011;38584;49.426;8.396;2022-08-11T14:06:37;11.35;;;2.40;;
52686;SDS011;38584;49.426;8.396;2022-08-11T14:09:06;4.78;;;2.10;;
52686;SDS011;38584;49.426;8.396;2022-08-11T14:11:32;7.13;;;2.38;;
52686;SDS011;38584;49.426;8.396;2022-08-11T14:14:18;5.60;;;2.03;;
52686;SDS011;38584;49.426;8.396;2022-08-11T14:16:45;7.03;;;2.03;;
52686;SDS011;38584;49.426;8.396;2022-08-11T14:19:12;9.50;;;2.38;;
52686;SDS011;38584;49.426;8.396;2022-08-11T14:21:40;5.80;;;2.33;;
52686;SDS011;38584;49.426;8.396;2022-08-11T14:24:25;8.82;;;2.50;;
52686;SDS011;38584;49.426;8.396;2022-08-11T14:26:50;7.07;;;2.13;;
52686;SDS011;38584;49.426;8.396;2022-08-11T14:29:18;7.38;;;2.17;;
52686;SDS011;38584;49.426;8.396;2022-08-11T14:31:50;8.40;;;2.20;;
52686;SDS011;38584;49.426;8.396;2022-08-11T14:34:18;7.50;;;2.35;;
52686;SDS011;38584;49.426;8.396;2022-08-11T14:36:46;7.18;;;2.00;;
52686;SDS011;38584;49.426;8.396;2022-08-11T14:39:15;4.00;;;1.90;;
52686;SDS011;38584;49.426;8.396;2022-08-11T14:41:44;6.65;;;2.17;;
52686;SDS011;38584;49.426;8.396;2022-08-11T14:44:29;5.13;;;2.10;;
52686;SDS011;38584;49.426;8.396;2022-08-11T14:47:13;4.07;;;1.95;;
52686;SDS011;38584;49.426;8.396;2022-08-11T14:49:39;7.55;;;2.38;;
52686;SDS011;38584;49.426;8.396;2022-08-11T14:52:09;6.65;;;2.17;;
52686;SDS011;38584;49.426;8.396;2022-08-11T14:54:35;7.03;;;2.10;;
52686;SDS011;38584;49.426;8.396;2022-08-11T14:57:19;7.65;;;2.30;;
52686;SDS011;38584;49.426;8.396;2022-08-11T14:59:46;8.85;;;2.20;;
52686;SDS011;38584;49.426;8.396;2022-08-11T15:02:12;5.70;;;1.90;;
52686;SDS011;38584;49.426;8.396;2022-08-11T15:04:57;4.85;;;2.03;;
52686;SDS011;38584;49.426;8.396;2022-08-11T15:07:23;5.78;;;1.85;;
52686;SDS011;38584;49.426;8.396;2022-08-11T15:09:57;4.00;;;2.00;;
52686;SDS011;38584;49.426;8.396;2022-08-11T15:12:24;4.22;;;2.05;;
52686;SDS011;38584;49.426;8.396;2022-08-11T15:14:49;4.38;;;1.92;;
52686;SDS011;38584;49.426;8.396;2022-08-11T15:17:33;6.55;;;2.03;;
52686;SDS011;38584;49.426;8.396;2022-08-11T15:20:06;7.07;;;2.00;;
52686;SDS011;38584;49.426;8.396;2022-08-11T15:22:50;9.50;;;2.25;;
52686;SDS011;38584;49.426;8.396;2022-08-11T15:25:34;5.80;;;2.10;;
52686;SDS011;38584;49.426;8.396;2022-08-11T15:28:01;4.97;;;2.00;;
52686;SDS011;38584;49.426;8.396;2022-08-11T15:30:45;5.80;;;2.15;;
52686;SDS011;38584;49.426;8.396;2022-08-11T15:33:30;7.10;;;2.00;;
52686;SDS011;38584;49.426;8.396;2022-08-11T15:36:14;6.10;;;2.20;;
52686;SDS011;38584;49.426;8.396;2022-08-11T15:39:02;6.00;;;2.08;;
52686;SDS011;38584;49.426;8.396;2022-08-11T15:41:35;6.35;;;1.83;;
52686;SDS011;38584;49.426;8.396;2022-08-11T15:44:21;7.22;;;2.30;;
52686;SDS011;38584;49.426;8.396;2022-08-11T15:47:05;9.32;;;2.90;;
52686;SDS011;38584;49.426;8.396;2022-08-11T15:49:34;6.15;;;1.90;;
52686;SDS011;38584;49.426;8.396;2022-08-11T15:54:32;5.43;;;1.80;;
52686;SDS011;38584;49.426;8.396;2022-08-11T15:56:59;6.53;;;1.73;;
52686;SDS011;38584;49.426;8.396;2022-08-11T15:59:25;2.67;;;1.70;;
52686;SDS011;38584;49.426;8.396;2022-08-11T16:02:30;9.55;;;2.00;;
52686;SDS011;38584;49.426;8.396;2022-08-11T16:05:14;10.90;;;1.98;;
52686;SDS011;38584;49.426;8.396;2022-08-11T16:07:41;7.68;;;2.00;;
52686;SDS011;38584;49.426;8.396;2022-08-11T16:12:43;5.88;;;2.05;;
52686;SDS011;38584;49.426;8.396;2022-08-11T16:15:27;4.63;;;2.05;;
52686;SDS011;38584;49.426;8.396;2022-08-11T16:18:12;9.45;;;2.10;;
52686;SDS011;38584;49.426;8.396;2022-08-11T16:20:39;7.47;;;2.03;;
52686;SDS011;38584;49.426;8.396;2022-08-11T16:23:04;6.20;;;2.03;;
52686;SDS011;38584;49.426;8.396;2022-08-11T16:25:32;14.13;;;2.45;;
52686;SDS011;38584;49.426;8.396;2022-08-11T16:27:59;7.85;;;2.20;;
52686;SDS011;38584;49.426;8.396;2022-08-11T16:30:30;10.07;;;2.78;;
52686;SDS011;38584;49.426;8.396;2022-08-11T16:32:56;6.05;;;2.28;;
52686;SDS011;38584;49.426;8.396;2022-08-11T16:35:22;7.47;;;1.90;;
52686;SDS011;38584;49.426;8.396;2022-08-11T16:38:07;5.78;;;1.90;;
52686;SDS011;38584;49.426;8.396;2022-08-11T16:40:51;6.60;;;1.95;;
52686;SDS011;38584;49.426;8.396;2022-08-11T16:43:18;8.10;;;1.98;;
52686;SDS011;38584;49.426;8.396;2022-08-11T16:46:04;5.38;;;2.10;;
52686;SDS011;38584;49.426;8.396;2022-08-11T16:48:48;6.30;;;1.85;;
52686;SDS011;38584;49.426;8.396;2022-08-11T16:51:14;6.82;;;1.85;;
52686;SDS011;38584;49.426;8.396;2022-08-11T16:53:41;6.25;;;2.08;;
52686;SDS011;38584;49.426;8.396;2022-08-11T16:56:08;3.55;;;2.00;;
52686;SDS011;38584;49.426;8.396;2022-08-11T16:58:34;4.38;;;1.90;;
52686;SDS011;38584;49.426;8.396;2022-08-11T17:01:20;5.72;;;2.13;;
52686;SDS011;38584;49.426;8.396;2022-08-11T17:03:50;9.68;;;2.20;;
52686;SDS011;38584;49.426;8.396;2022-08-11T17:06:34;8.82;;;2.30;;
52686;SDS011;38584;49.426;8.396;2022-08-11T17:09:20;5.90;;;2.53;;
52686;SDS011;38584;49.426;8.396;2022-08-11T17:12:06;6.18;;;2.00;;
52686;SDS011;38584;49.426;8.396;2022-08-11T17:14:51;8.32;;;2.10;;
52686;SDS011;38584;49.426;8.396;2022-08-11T17:17:17;5.35;;;1.80;;
52686;SDS011;38584;49.426;8.396;2022-08-11T17:19:49;8.93;;;2.20;;
52686;SDS011;38584;49.426;8.396;2022-08-11T17:22:15;6.82;;;1.90;;
52686;SDS011;38584;49.426;8.396;2022-08-11T17:24:59;8.75;;;2.00;;
52686;SDS011;38584;49.426;8.396;2022-08-11T17:27:25;8.32;;;2.17;;
52686;SDS011;38584;49.426;8.396;2022-08-11T17:29:53;7.03;;;1.83;;
52686;SDS011;38584;49.426;8.396;2022-08-11T17:32:22;9.40;;;2.20;;
52686;SDS011;38584;49.426;8.396;2022-08-11T17:35:28;12.05;;;2.10;;
52686;SDS011;38584;49.426;8.396;2022-08-11T17:38:02;9.75;;;2.20;;
52686;SDS011;38584;49.426;8.396;2022-08-11T17:40:28;9.57;;;2.30;;
52686;SDS011;38584;49.426;8.396;2022-08-11T17:42:54;14.55;;;2.50;;
52686;SDS011;38584;49.426;8.396;2022-08-11T17:45:39;5.20;;;1.90;;
52686;SDS011;38584;49.426;8.396;2022-08-11T17:48:26;8.73;;;2.22;;
52686;SDS011;38584;49.426;8.396;2022-08-11T17:51:03;7.55;;;2.08;;
52686;SDS011;38584;49.426;8.396;2022-08-11T17:53:30;5.05;;;1.95;;
52686;SDS011;38584;49.426;8.396;2022-08-11T17:56:15;8.65;;;2.30;;
52686;SDS011;38584;49.426;8.396;2022-08-11T17:58:58;9.80;;;2.30;;
52686;SDS011;38584;49.426;8.396;2022-08-11T18:01:43;6.57;;;2.30;;
52686;SDS011;38584;49.426;8.396;2022-08-11T18:04:11;8.07;;;2.97;;
52686;SDS011;38584;49.426;8.396;2022-08-11T18:06:37;7.35;;;2.13;;
52686;SDS011;38584;49.426;8.396;2022-08-11T18:09:06;4.43;;;2.10;;
52686;SDS011;38584;49.426;8.396;2022-08-11T18:11:50;5.70;;;1.90;;
52686;SDS011;38584;49.426;8.396;2022-08-11T18:14:35;10.35;;;2.33;;
52686;SDS011;38584;49.426;8.396;2022-08-11T18:17:19;8.07;;;2.53;;
52686;SDS011;38584;49.426;8.396;2022-08-11T18:20:04;8.48;;;2.13;;